createdAt,value
2018-11-05T00:00:19.231Z,42.07
2018-11-05T00:02:49.717Z,43.37
2018-11-05T00:05:18.627Z,42.97
2018-11-05T00:07:47.525Z,41.20
2018-11-05T00:10:16.411Z,40.90
2018-11-05T00:12:45.203Z,41.77
2018-11-05T00:15:14.028Z,45.57
2018-11-05T00:17:43.136Z,45.30
2018-11-05T00:20:12.691Z,44.10
2018-11-05T00:22:41.532Z,43.70
2018-11-05T00:25:12.190Z,44.10
2018-11-05T00:27:41.430Z,40.77
2018-11-05T00:30:12.136Z,43.63
2018-11-05T00:32:41.418Z,42.70
2018-11-05T00:35:10.346Z,43.37
2018-11-05T00:37:39.495Z,41.87
2018-11-05T00:40:13.902Z,43.40
2018-11-05T00:42:43.424Z,42.40
2018-11-05T00:45:13.135Z,42.50
2018-11-05T00:47:42.636Z,43.00
2018-11-05T00:50:13.093Z,43.73
2018-11-05T00:52:41.961Z,59.53
2018-11-05T00:55:11.548Z,49.03
2018-11-05T00:57:40.471Z,47.97
2018-11-05T01:00:12.115Z,46.13
2018-11-05T01:02:41.610Z,47.17
2018-11-05T01:05:11.915Z,51.37
2018-11-05T01:07:41.371Z,47.47
2018-11-05T01:10:11.286Z,46.80
2018-11-05T01:12:40.280Z,48.97
2018-11-05T01:15:11.941Z,47.73
2018-11-05T01:17:40.903Z,49.50
2018-11-05T01:20:11.156Z,48.83
2018-11-05T01:22:40.146Z,51.07
2018-11-05T01:25:09.068Z,47.73
2018-11-05T01:27:37.925Z,45.33
2018-11-05T01:30:08.758Z,47.87
2018-11-05T01:32:37.672Z,49.93
2018-11-05T01:35:07.614Z,50.73
2018-11-05T01:37:36.494Z,51.83
2018-11-05T01:40:07.300Z,50.17
2018-11-05T01:42:36.348Z,51.77
2018-11-05T01:45:06.545Z,51.50
2018-11-05T01:47:35.381Z,49.37
2018-11-05T01:50:04.273Z,51.47
2018-11-05T01:52:33.085Z,49.47
2018-11-05T01:55:02.198Z,51.27
2018-11-05T01:57:31.080Z,55.37
2018-11-05T02:00:00.067Z,49.33
2018-11-05T02:02:29.055Z,51.13
2018-11-05T02:05:04.461Z,51.17
2018-11-05T02:07:33.357Z,52.07
2018-11-05T02:10:02.502Z,52.03
2018-11-05T02:12:31.708Z,48.57
2018-11-05T02:15:00.821Z,50.87
2018-11-05T02:17:29.842Z,52.20
2018-11-05T02:19:58.647Z,54.30
2018-11-05T02:22:27.563Z,53.27
2018-11-05T02:24:56.427Z,53.33
2018-11-05T02:27:25.406Z,51.80
2018-11-05T02:29:54.566Z,54.10
2018-11-05T02:32:23.440Z,51.73
2018-11-05T02:34:52.662Z,53.03
2018-11-05T02:37:21.858Z,54.10
2018-11-05T02:39:50.661Z,54.67
2018-11-05T02:42:19.611Z,53.00
2018-11-05T02:44:48.738Z,51.30
2018-11-05T02:47:23.773Z,53.60
2018-11-05T02:49:52.722Z,58.30
2018-11-05T02:52:21.914Z,53.30
2018-11-05T02:54:50.836Z,54.20
2018-11-05T02:57:19.734Z,54.20
2018-11-05T02:59:48.612Z,53.73
2018-11-05T03:02:17.604Z,53.10
2018-11-05T03:04:46.446Z,55.20
2018-11-05T03:07:15.332Z,55.60
2018-11-05T03:09:44.187Z,55.90
2018-11-05T03:12:13.113Z,53.10
2018-11-05T03:14:41.928Z,56.70
2018-11-05T03:17:10.780Z,55.13
2018-11-05T03:19:39.680Z,54.80
2018-11-05T03:22:08.515Z,56.30
2018-11-05T03:24:37.411Z,53.73
2018-11-05T03:27:06.654Z,56.87
2018-11-05T03:29:35.763Z,56.43
2018-11-05T03:32:04.666Z,57.43
2018-11-05T03:34:33.503Z,54.70
2018-11-05T03:37:02.410Z,52.63
2018-11-05T03:39:31.568Z,52.60
2018-11-05T03:42:00.424Z,51.77
2018-11-05T03:44:29.263Z,55.00
2018-11-05T03:46:58.066Z,53.93
2018-11-05T03:49:26.935Z,53.13
2018-11-05T03:51:56.110Z,53.63
2018-11-05T03:54:24.987Z,52.80
2018-11-05T03:56:54.214Z,52.47
2018-11-05T03:59:23.021Z,55.37
2018-11-05T04:01:51.959Z,55.87
2018-11-05T04:04:20.865Z,54.70
2018-11-05T04:06:49.703Z,53.60
2018-11-05T04:09:18.961Z,54.57
2018-11-05T04:11:48.105Z,52.93
2018-11-05T04:14:16.909Z,53.03
2018-11-05T04:16:46.141Z,54.50
2018-11-05T04:19:15.027Z,54.23
2018-11-05T04:21:44.945Z,55.20
2018-11-05T04:24:15.048Z,52.57
2018-11-05T04:26:45.138Z,50.20
2018-11-05T04:29:14.545Z,52.83
2018-11-05T04:31:43.720Z,54.80
2018-11-05T04:34:12.578Z,55.27
2018-11-05T04:36:41.748Z,56.30
2018-11-05T04:39:15.548Z,55.30
2018-11-05T04:41:44.984Z,54.20
2018-11-05T04:44:13.866Z,55.63
2018-11-05T04:46:42.850Z,52.50
2018-11-05T04:49:11.691Z,52.50
2018-11-05T04:51:40.497Z,54.80
2018-11-05T04:54:09.557Z,53.60
2018-11-05T04:56:38.351Z,54.90
2018-11-05T04:59:07.922Z,54.40
2018-11-05T05:01:36.853Z,53.17
2018-11-05T05:04:05.726Z,53.70
2018-11-05T05:06:34.741Z,53.80
2018-11-05T05:09:03.769Z,54.93
2018-11-05T05:11:32.988Z,57.10
2018-11-05T05:14:01.883Z,55.77
2018-11-05T05:16:31.038Z,53.67
2018-11-05T05:19:00.245Z,53.73
2018-11-05T05:21:28.993Z,53.17
2018-11-05T05:23:57.822Z,52.60
2018-11-05T05:26:26.879Z,52.47
2018-11-05T05:28:55.745Z,54.90
2018-11-05T05:31:24.794Z,52.50
2018-11-05T05:33:53.627Z,53.43
2018-11-05T05:36:22.505Z,51.63
2018-11-05T05:38:51.451Z,55.27
2018-11-05T05:41:20.665Z,54.03
2018-11-05T05:43:49.463Z,52.37
2018-11-05T05:46:18.642Z,51.80
2018-11-05T05:48:47.487Z,51.77
2018-11-05T05:51:16.847Z,51.77
2018-11-05T05:53:46.037Z,52.93
2018-11-05T05:56:14.900Z,53.50
2018-11-05T05:58:43.796Z,54.37
2018-11-05T06:01:12.747Z,53.30
2018-11-05T06:03:41.942Z,51.17
2018-11-05T06:06:10.895Z,51.20
2018-11-05T06:08:39.915Z,52.73
2018-11-05T06:11:08.702Z,52.70
2018-11-05T06:13:37.510Z,50.13
2018-11-05T06:16:06.692Z,52.50
2018-11-05T06:18:36.069Z,52.60
2018-11-05T06:21:04.953Z,55.30
2018-11-05T06:23:33.799Z,55.17
2018-11-05T06:26:02.955Z,52.10
2018-11-05T06:28:31.969Z,52.53
2018-11-05T06:31:00.742Z,54.37
2018-11-05T06:33:29.536Z,61.93
2018-11-05T06:35:58.832Z,53.87
2018-11-05T06:38:27.666Z,53.00
2018-11-05T06:40:56.544Z,52.70
2018-11-05T06:43:25.369Z,52.63
2018-11-05T06:45:54.519Z,52.57
2018-11-05T06:48:23.462Z,61.30
2018-11-05T06:50:52.299Z,53.90
2018-11-05T06:53:21.345Z,53.13
2018-11-05T06:55:50.250Z,49.70
2018-11-05T06:58:19.152Z,50.27
2018-11-05T07:00:48.052Z,51.53
2018-11-05T07:03:17.256Z,50.97
2018-11-05T07:05:46.713Z,52.63
2018-11-05T07:08:15.817Z,49.50
2018-11-05T07:10:45.074Z,48.03
2018-11-05T07:13:13.865Z,50.87
2018-11-05T07:15:42.715Z,51.23
2018-11-05T07:18:11.649Z,48.90
2018-11-05T07:20:40.464Z,50.90
2018-11-05T07:23:09.421Z,50.63
2018-11-05T07:25:38.321Z,50.70
2018-11-05T07:28:07.256Z,50.30
2018-11-05T07:30:36.404Z,51.00
2018-11-05T07:33:05.917Z,50.43
2018-11-05T07:35:34.771Z,52.73
2018-11-05T07:38:03.771Z,49.30
2018-11-05T07:40:32.583Z,52.10
2018-11-05T07:43:01.469Z,49.00
2018-11-05T07:45:30.333Z,51.87
2018-11-05T07:47:59.197Z,47.97
2018-11-05T07:50:28.318Z,50.73
2018-11-05T07:52:57.555Z,48.37
2018-11-05T07:55:26.751Z,50.53
2018-11-05T07:57:55.558Z,50.53
2018-11-05T08:00:29.502Z,49.17
2018-11-05T08:02:58.628Z,48.90
2018-11-05T08:05:27.452Z,49.93
2018-11-05T08:07:56.304Z,50.20
2018-11-05T08:10:25.073Z,49.60
2018-11-05T08:12:53.867Z,51.60
2018-11-05T08:15:24.783Z,47.50
2018-11-05T08:17:54.244Z,49.63
2018-11-05T08:20:23.060Z,46.63
2018-11-05T08:22:51.993Z,45.90
2018-11-05T08:25:20.808Z,48.00
2018-11-05T08:27:49.708Z,50.93
2018-11-05T08:30:20.741Z,51.40
2018-11-05T08:32:49.589Z,50.33
2018-11-05T08:35:18.721Z,47.67
2018-11-05T08:37:48.459Z,48.93
2018-11-05T08:40:19.436Z,47.83
2018-11-05T08:42:49.470Z,46.80
2018-11-05T08:45:19.591Z,48.43
2018-11-05T08:47:48.889Z,48.07
2018-11-05T08:50:19.086Z,48.30
2018-11-05T08:52:47.963Z,46.90
2018-11-05T08:55:18.163Z,46.30
2018-11-05T08:57:47.262Z,47.47
2018-11-05T09:00:22.313Z,45.50
2018-11-05T09:02:52.039Z,50.10
2018-11-05T09:05:22.272Z,46.50
2018-11-05T09:07:52.206Z,47.10
2018-11-05T09:10:21.506Z,48.00
2018-11-05T09:12:50.514Z,46.30
2018-11-05T09:15:20.517Z,46.90
2018-11-05T09:17:49.597Z,48.17
2018-11-05T09:20:19.167Z,44.40
2018-11-05T09:22:48.791Z,49.80
2018-11-05T09:25:17.942Z,47.37
2018-11-05T09:27:46.951Z,47.23
2018-11-05T09:30:17.436Z,46.73
2018-11-05T09:32:47.061Z,48.47
2018-11-05T09:35:16.194Z,48.33
2018-11-05T09:37:45.123Z,44.93
2018-11-05T09:40:18.155Z,45.50
2018-11-05T09:42:48.173Z,45.67
2018-11-05T09:45:20.925Z,46.77
2018-11-05T09:47:50.602Z,45.87
2018-11-05T09:50:20.054Z,45.77
2018-11-05T09:52:48.974Z,45.43
2018-11-05T09:55:17.939Z,46.07
2018-11-05T09:57:46.962Z,46.93
2018-11-05T10:00:18.839Z,46.43
2018-11-05T10:02:53.281Z,47.80
2018-11-05T10:05:22.321Z,45.33
2018-11-05T10:07:51.693Z,46.30
2018-11-05T10:10:20.882Z,46.60
2018-11-05T10:12:49.957Z,46.23
2018-11-05T10:15:19.613Z,45.17
2018-11-05T10:17:48.527Z,44.93
2018-11-05T10:20:22.564Z,47.77
2018-11-05T10:22:51.458Z,44.70
2018-11-05T10:25:21.019Z,46.47
2018-11-05T10:27:51.107Z,46.77
2018-11-05T10:30:21.458Z,42.50
2018-11-05T10:32:50.814Z,44.03
2018-11-05T10:35:19.960Z,43.80
2018-11-05T10:37:48.804Z,46.10
2018-11-05T10:40:19.473Z,44.70
2018-11-05T10:42:49.119Z,44.47
2018-11-05T10:45:18.821Z,42.13
2018-11-05T10:47:47.741Z,40.50
2018-11-05T10:50:17.727Z,43.63
2018-11-05T10:52:48.847Z,43.73
2018-11-05T10:55:18.125Z,44.03
2018-11-05T10:57:47.394Z,42.10
2018-11-05T11:00:22.688Z,41.77
2018-11-05T11:02:56.742Z,42.20
2018-11-05T11:05:26.296Z,42.83
2018-11-05T11:07:56.310Z,40.00
2018-11-05T11:10:25.991Z,41.20
2018-11-05T11:12:54.849Z,41.57
2018-11-05T11:15:23.930Z,41.17
2018-11-05T11:17:53.274Z,40.57
2018-11-05T11:20:22.188Z,41.10
2018-11-05T11:22:51.012Z,38.43
2018-11-05T11:25:19.971Z,39.63
2018-11-05T11:27:49.198Z,39.20
2018-11-05T11:30:18.399Z,39.03
2018-11-05T11:32:47.964Z,41.70
2018-11-05T11:35:17.148Z,40.03
2018-11-05T11:37:46.009Z,38.37
2018-11-05T11:40:17.262Z,39.03
2018-11-05T11:42:47.590Z,39.83
2018-11-05T11:45:17.545Z,39.70
2018-11-05T11:47:46.918Z,38.37
2018-11-05T11:50:17.676Z,41.40
2018-11-05T11:52:46.639Z,41.60
2018-11-05T11:55:17.855Z,39.80
2018-11-05T11:57:46.796Z,38.50
2018-11-05T12:00:23.183Z,38.30
2018-11-05T12:02:52.732Z,37.80
2018-11-05T12:05:21.760Z,37.53
2018-11-05T12:07:50.541Z,36.93
2018-11-05T12:10:22.580Z,37.40
2018-11-05T12:12:51.434Z,37.87
2018-11-05T12:15:21.248Z,37.17
2018-11-05T12:17:51.415Z,37.80
2018-11-05T12:20:21.848Z,36.33
2018-11-05T12:22:51.283Z,37.93
2018-11-05T12:25:20.846Z,37.90
2018-11-05T12:27:49.616Z,37.20
2018-11-05T12:30:20.121Z,37.87
2018-11-05T12:32:49.758Z,36.80
2018-11-05T12:35:18.720Z,37.47
2018-11-05T12:37:48.820Z,37.37
2018-11-05T12:40:18.880Z,37.03
2018-11-05T12:42:48.836Z,38.17
2018-11-05T12:45:18.097Z,37.67
2018-11-05T12:47:47.033Z,35.87
2018-11-05T12:50:21.134Z,37.53
2018-11-05T12:52:51.435Z,36.30
2018-11-05T12:55:20.220Z,38.37
2018-11-05T12:57:49.727Z,36.53
2018-11-05T13:00:25.924Z,37.13
2018-11-05T13:02:55.858Z,37.97
2018-11-05T13:05:25.815Z,36.80
2018-11-05T13:07:54.723Z,37.50
2018-11-05T13:10:23.753Z,38.00
2018-11-05T13:12:53.089Z,35.30
2018-11-05T13:15:22.116Z,36.03
2018-11-05T13:17:51.084Z,37.80
2018-11-05T13:20:21.826Z,34.87
2018-11-05T13:22:50.792Z,35.63
2018-11-05T13:25:19.591Z,35.97
2018-11-05T13:27:55.007Z,38.17
2018-11-05T13:30:26.843Z,36.27
2018-11-05T13:32:55.811Z,37.30
2018-11-05T13:35:25.149Z,36.60
2018-11-05T13:37:54.731Z,36.93
2018-11-05T13:40:23.671Z,38.90
2018-11-05T13:42:53.049Z,38.07
2018-11-05T13:45:22.999Z,37.90
2018-11-05T13:47:53.169Z,38.00
2018-11-05T13:50:21.328Z,38.80
2018-11-05T13:52:49.958Z,39.80
2018-11-05T13:55:18.924Z,40.00
2018-11-05T13:57:48.731Z,40.77
2018-11-05T14:00:19.794Z,37.93
2018-11-05T14:02:48.888Z,39.37
2018-11-05T14:05:17.745Z,37.67
2018-11-05T14:07:46.888Z,39.77
2018-11-05T14:10:18.496Z,40.00
2018-11-05T14:12:48.208Z,38.97
2018-11-05T14:15:17.345Z,40.60
2018-11-05T14:17:46.448Z,38.63
2018-11-05T14:20:16.417Z,37.90
2018-11-05T14:22:45.321Z,37.97
2018-11-05T14:25:16.813Z,39.47
2018-11-05T14:27:47.135Z,41.33
2018-11-05T14:30:16.236Z,40.53
2018-11-05T14:32:46.273Z,39.13
2018-11-05T14:35:15.486Z,39.00
2018-11-05T14:37:44.434Z,38.60
2018-11-05T14:40:14.718Z,38.57
2018-11-05T14:42:43.695Z,37.47
2018-11-05T14:45:15.005Z,39.83
2018-11-05T14:47:44.846Z,38.13
2018-11-05T14:50:15.563Z,37.83
2018-11-05T14:52:44.430Z,37.83
2018-11-05T14:55:15.162Z,39.20
2018-11-05T14:57:44.884Z,39.53
2018-11-05T15:00:18.911Z,50.60
2018-11-05T15:02:48.569Z,46.40
2018-11-05T15:05:17.696Z,40.37
2018-11-05T15:07:47.365Z,38.10
2018-11-05T15:10:17.616Z,39.10
2018-11-05T15:12:46.462Z,39.43
2018-11-05T15:15:15.826Z,39.43
2018-11-05T15:17:45.111Z,40.07
2018-11-05T15:20:16.876Z,39.87
2018-11-05T15:22:45.500Z,39.53
2018-11-05T15:25:14.730Z,40.23
2018-11-05T15:27:43.596Z,39.70
2018-11-05T15:30:15.755Z,38.60
2018-11-05T15:32:45.005Z,38.00
2018-11-05T15:35:14.053Z,38.17
2018-11-05T15:37:43.394Z,39.53
2018-11-05T15:40:14.301Z,39.43
2018-11-05T15:42:43.172Z,40.30
2018-11-05T15:45:13.424Z,40.67
2018-11-05T15:47:42.724Z,39.67
2018-11-05T15:50:14.240Z,39.47
2018-11-05T15:52:43.407Z,38.00
2018-11-05T15:55:12.566Z,39.23
2018-11-05T15:57:41.800Z,35.47
2018-11-05T16:00:17.694Z,37.40
2018-11-05T16:02:48.827Z,36.23
2018-11-05T16:05:17.769Z,37.57
2018-11-05T16:07:46.943Z,33.80
2018-11-05T16:10:15.986Z,33.30
2018-11-05T16:12:44.885Z,33.50
2018-11-05T16:15:14.131Z,32.23
2018-11-05T16:17:43.187Z,33.60
2018-11-05T16:20:13.993Z,34.10
2018-11-05T16:22:43.293Z,35.10
2018-11-05T16:25:12.267Z,33.17
2018-11-05T16:27:41.376Z,34.30
2018-11-05T16:30:12.515Z,33.50
2018-11-05T16:32:41.982Z,35.50
2018-11-05T16:35:10.925Z,32.23
2018-11-05T16:37:39.996Z,34.17
2018-11-05T16:40:13.255Z,35.57
2018-11-05T16:42:42.827Z,35.67
2018-11-05T16:45:11.998Z,37.37
2018-11-05T16:47:41.586Z,35.70
2018-11-05T16:50:14.728Z,35.80
2018-11-05T16:52:43.558Z,34.77
2018-11-05T16:55:13.848Z,34.63
2018-11-05T16:57:43.329Z,34.57
2018-11-05T17:00:12.636Z,34.40
2018-11-05T17:02:42.124Z,34.90
2018-11-05T17:05:10.968Z,33.90
2018-11-05T17:07:40.114Z,36.60
2018-11-05T17:10:10.745Z,34.40
2018-11-05T17:12:39.747Z,33.70
2018-11-05T17:15:10.578Z,36.67
2018-11-05T17:17:39.841Z,33.23
2018-11-05T17:20:10.935Z,34.40
2018-11-05T17:22:40.254Z,35.10
2018-11-05T17:25:09.693Z,33.27
2018-11-05T17:27:38.689Z,34.57
2018-11-05T17:30:10.417Z,33.10
2018-11-05T17:32:39.374Z,33.83
2018-11-05T17:35:08.190Z,34.43
2018-11-05T17:37:37.157Z,33.37
2018-11-05T17:40:07.600Z,33.40
2018-11-05T17:42:36.728Z,33.33
2018-11-05T17:45:06.982Z,33.27
2018-11-05T17:47:35.963Z,34.23
2018-11-05T17:50:05.134Z,34.37
2018-11-05T17:52:34.151Z,34.37
2018-11-05T17:55:03.077Z,33.77
2018-11-05T17:57:32.711Z,41.67
2018-11-05T18:00:01.601Z,35.40
2018-11-05T18:02:30.593Z,33.60
2018-11-05T18:04:59.513Z,33.40
2018-11-05T18:07:29.095Z,32.80
2018-11-05T18:09:58.000Z,33.00
2018-11-05T18:12:27.151Z,33.00
2018-11-05T18:14:56.196Z,32.87
2018-11-05T18:17:25.066Z,32.23
2018-11-05T18:19:54.185Z,30.97
2018-11-05T18:22:23.238Z,32.57
2018-11-05T18:24:52.203Z,31.17
2018-11-05T18:27:21.440Z,32.67
2018-11-05T18:29:50.566Z,31.17
2018-11-05T18:32:21.605Z,30.37
2018-11-05T18:34:52.145Z,32.90
2018-11-05T18:37:21.588Z,31.53
2018-11-05T18:39:50.745Z,31.70
2018-11-05T18:42:19.612Z,33.77
2018-11-05T18:44:48.402Z,29.23
2018-11-05T18:47:17.571Z,30.80
2018-11-05T18:49:46.880Z,30.00
2018-11-05T18:52:15.381Z,33.17
2018-11-05T18:54:44.501Z,30.13
2018-11-05T18:57:13.507Z,39.60
2018-11-05T18:59:42.610Z,31.70
2018-11-05T19:02:15.635Z,29.50
2018-11-05T19:04:44.822Z,28.67
2018-11-05T19:07:13.750Z,31.27
2018-11-05T19:09:42.858Z,29.93
2018-11-05T19:12:11.836Z,31.20
2018-11-05T19:14:40.685Z,29.83
2018-11-05T19:17:09.622Z,30.50
2018-11-05T19:19:38.605Z,28.97
2018-11-05T19:22:07.702Z,29.87
2018-11-05T19:24:37.210Z,28.60
2018-11-05T19:27:06.583Z,29.73
2018-11-05T19:29:35.583Z,29.87
2018-11-05T19:32:04.548Z,28.23
2018-11-05T19:34:33.539Z,30.40
2018-11-05T19:37:03.135Z,28.10
2018-11-05T19:39:32.491Z,31.50
2018-11-05T19:42:01.737Z,29.47
2018-11-05T19:44:30.915Z,30.37
2018-11-05T19:46:59.918Z,29.00
2018-11-05T19:49:29.178Z,30.23
2018-11-05T19:51:58.327Z,29.10
2018-11-05T19:54:27.687Z,28.20
2018-11-05T19:56:56.565Z,31.83
2018-11-05T19:59:26.585Z,28.83
2018-11-05T20:01:55.661Z,30.07
2018-11-05T20:04:24.464Z,29.90
2018-11-05T20:06:53.411Z,31.10
2018-11-05T20:09:24.317Z,29.33
2018-11-05T20:11:53.533Z,31.07
2018-11-05T20:14:22.503Z,29.53
2018-11-05T20:16:51.447Z,30.00
2018-11-05T20:19:20.516Z,30.57
2018-11-05T20:21:49.259Z,30.03
2018-11-05T20:24:18.464Z,32.10
2018-11-05T20:26:47.659Z,28.90
2018-11-05T20:29:16.597Z,29.83
2018-11-05T20:31:46.028Z,28.83
2018-11-05T20:34:14.894Z,30.33
2018-11-05T20:36:43.569Z,28.67
2018-11-05T20:39:12.880Z,29.77
2018-11-05T20:41:42.019Z,28.43
2018-11-05T20:44:10.978Z,28.20
2018-11-05T20:46:40.266Z,29.00
2018-11-05T20:49:09.162Z,28.87
2018-11-05T20:51:38.002Z,29.27
2018-11-05T20:54:07.671Z,28.80
2018-11-05T20:56:36.555Z,26.83
2018-11-05T20:59:05.484Z,26.60
2018-11-05T21:01:34.390Z,26.00
2018-11-05T21:04:03.645Z,26.00
2018-11-05T21:06:33.048Z,25.40
2018-11-05T21:09:02.420Z,27.47
2018-11-05T21:11:32.822Z,28.50
2018-11-05T21:14:02.173Z,27.33
2018-11-05T21:16:31.111Z,27.50
2018-11-05T21:19:00.715Z,27.57
2018-11-05T21:21:29.756Z,28.23
2018-11-05T21:23:58.574Z,26.73
2018-11-05T21:26:28.409Z,27.83
2018-11-05T21:28:58.044Z,28.57
2018-11-05T21:31:26.929Z,26.70
2018-11-05T21:36:25.125Z,26.50
2018-11-05T21:38:55.088Z,26.50
2018-11-05T21:41:24.004Z,40.20
2018-11-05T21:43:53.319Z,36.20
2018-11-05T21:46:22.701Z,30.50
2018-11-05T21:48:51.946Z,26.27
2018-11-05T21:51:21.437Z,24.87
2018-11-05T21:53:51.172Z,25.80
2018-11-05T21:56:20.347Z,25.13
2018-11-05T21:58:49.751Z,24.53
2018-11-05T22:01:18.839Z,26.30
2018-11-05T22:03:48.834Z,25.67
2018-11-05T22:06:18.155Z,25.20
2018-11-05T22:08:46.969Z,25.93
2018-11-05T22:11:16.034Z,24.87
2018-11-05T22:13:46.410Z,26.13
2018-11-05T22:16:15.232Z,24.27
2018-11-05T22:18:44.252Z,23.77
2018-11-05T22:21:13.506Z,23.90
2018-11-05T22:23:42.499Z,25.77
2018-11-05T22:26:11.677Z,22.10
2018-11-05T22:28:41.202Z,23.73
2018-11-05T22:31:10.007Z,23.43
2018-11-05T22:33:39.255Z,22.37
2018-11-05T22:36:08.437Z,22.73
2018-11-05T22:38:37.641Z,22.07
2018-11-05T22:41:07.314Z,21.30
2018-11-05T22:43:36.233Z,22.07
2018-11-05T22:46:05.044Z,22.67
2018-11-05T22:48:33.807Z,21.23
2018-11-05T22:51:02.628Z,20.60
2018-11-05T22:53:31.831Z,21.43
2018-11-05T22:56:01.117Z,19.80
2018-11-05T22:58:30.436Z,21.87
2018-11-05T23:01:06.215Z,20.80
2018-11-05T23:03:35.342Z,21.30
2018-11-05T23:06:04.269Z,21.60
2018-11-05T23:08:33.183Z,21.50
2018-11-05T23:11:02.049Z,21.60
2018-11-05T23:13:30.930Z,20.43
2018-11-05T23:15:59.812Z,20.83
2018-11-05T23:18:28.647Z,21.20
2018-11-05T23:20:57.838Z,20.53
2018-11-05T23:23:27.008Z,20.03
2018-11-05T23:25:56.022Z,19.90
2018-11-05T23:28:25.236Z,20.60
2018-11-05T23:30:54.126Z,19.90
2018-11-05T23:33:23.309Z,20.80
2018-11-05T23:35:52.124Z,20.67
2018-11-05T23:38:21.171Z,20.00
2018-11-05T23:40:50.130Z,19.90
2018-11-05T23:43:19.006Z,20.40
2018-11-05T23:45:48.942Z,20.40
2018-11-05T23:48:19.128Z,19.90
2018-11-05T23:50:48.002Z,20.07
2018-11-05T23:53:17.094Z,18.97
2018-11-05T23:55:45.975Z,19.73
2018-11-05T23:58:15.049Z,20.17
